Time;durP1;ratioP1;P1;durP2;ratioP2;P2;SDS_P1;SDS_P2;PMS_P1;PMS_P2;Temp;Humidity;BMP_temperature;BMP_pressure;BME280_temperature;BME280_humidity;BME280_pressure;Samples;Min_cycle;Max_cycle;Signal;HPM_P1;HPM_P2
2022/03/15 00:00:07;;;;;;;41.28;20.25;;;;;;;0.39;53.59;101839.50;6348156;27;20046;-66
2022/03/15 00:03:08;;;;;;;48.47;22.37;;;;;;;0.33;52.49;101829.16;6346879;28;20039;-65
2022/03/15 00:06:09;;;;;;;42.80;21.30;;;;;;;0.31;54.22;101833.41;6346759;28;20039;-69
2022/03/15 00:09:10;;;;;;;44.97;20.98;;;;;;;0.25;54.10;101843.63;6346735;28;20460;-69
2022/03/15 00:12:12;;;;;;;45.63;20.80;;;;;;;0.20;54.24;101841.00;6347700;28;20082;-66
2022/03/15 00:15:14;;;;;;;47.60;23.80;;;;;;;0.07;54.59;101835.75;6347750;28;20043;-69
2022/03/15 00:18:15;;;;;;;48.70;23.88;;;;;;;0.07;56.14;101835.75;6346684;28;20479;-69
2022/03/15 00:21:18;;;;;;;52.97;27.17;;;;;;;0.05;55.19;101835.72;6347642;28;20051;-65
2022/03/15 00:24:19;;;;;;;56.88;27.70;;;;;;;0.05;54.85;101835.72;6346357;28;20176;-66
2022/03/15 00:27:20;;;;;;;56.72;26.75;;;;;;;0.05;55.28;101829.72;6347507;28;20043;-66
2022/03/15 00:30:23;;;;;;;53.15;26.80;;;;;;;0.03;54.75;101823.72;6346327;28;20039;-69
2022/03/15 00:33:25;;;;;;;55.30;25.90;;;;;;;0.03;56.12;101837.41;6345952;28;20672;-69
2022/03/15 00:36:26;;;;;;;59.70;27.00;;;;;;;0.03;55.68;101831.41;6347261;28;20035;-69
2022/03/15 00:39:27;;;;;;;61.03;29.73;;;;;;;-0.03;51.55;101825.34;6347164;28;20395;-69
2022/03/15 00:42:28;;;;;;;65.35;28.80;;;;;;;-0.08;51.25;101815.91;6347093;28;20043;-66
2022/03/15 00:45:29;;;;;;;51.55;26.40;;;;;;;-0.10;50.68;101812.47;6329012;28;20063;-66
2022/03/15 00:48:30;;;;;;;53.60;26.52;;;;;;;-0.12;50.47;101807.31;6345713;28;20043;-66
2022/03/15 00:51:33;;;;;;;60.15;27.23;;;;;;;-0.02;50.90;101805.72;6345518;28;20050;-66
2022/03/15 00:54:34;;;;;;;64.32;28.55;;;;;;;0.03;49.84;101801.47;6346761;28;20512;-69
2022/03/15 00:57:35;;;;;;;56.47;26.60;;;;;;;0.03;49.57;101801.47;6345662;28;20040;-69
2022/03/15 01:00:36;;;;;;;68.65;28.33;;;;;;;0.00;49.52;101801.44;6345426;28;20036;-70
2022/03/15 01:03:36;;;;;;;58.00;26.58;;;;;;;0.02;49.73;101797.16;6346587;28;20043;-69
2022/03/15 01:06:38;;;;;;;55.95;26.15;;;;;;;-0.10;50.34;101790.22;6346554;28;20040;-66
2022/03/15 01:09:39;;;;;;;60.60;27.37;;;;;;;-0.09;50.16;101794.50;6346565;28;20122;-66
2022/03/15 01:12:40;;;;;;;57.40;26.67;;;;;;;-0.04;49.48;101795.41;6328179;28;20067;-66
2022/03/15 01:15:42;;;;;;;52.50;25.00;;;;;;;0.05;48.86;101796.34;6346485;28;20092;-66
2022/03/15 01:18:44;;;;;;;56.53;25.42;;;;;;;0.09;49.11;101790.41;6328368;28;20044;-66
2022/03/15 01:21:45;;;;;;;55.63;24.70;;;;;;;0.12;49.06;101787.84;6345187;28;20527;-66
2022/03/15 01:24:45;;;;;;;54.08;26.02;;;;;;;0.14;48.36;101779.31;6327699;28;20061;-66
2022/03/15 01:27:46;;;;;;;63.35;25.23;;;;;;;0.10;48.58;101790.41;6344719;28;20044;-66
2022/03/15 01:30:47;;;;;;;54.30;26.17;;;;;;;0.14;48.56;101791.31;6345116;28;20044;-66
2022/03/15 01:33:48;;;;;;;50.33;24.73;;;;;;;0.15;48.61;101790.47;6327920;28;20043;-66
2022/03/15 01:36:49;;;;;;;54.38;25.73;;;;;;;0.17;48.47;101796.47;6346039;28;20121;-65
2022/03/15 01:39:50;;;;;;;50.78;25.17;;;;;;;0.16;48.23;101807.56;6344789;28;20047;-66
2022/03/15 01:42:51;;;;;;;60.30;27.25;;;;;;;0.05;50.11;101809.19;6345897;28;20044;-66
2022/03/15 01:45:53;;;;;;;56.53;25.88;;;;;;;0.02;50.13;101821.97;6346241;28;20439;-66
2022/03/15 01:48:54;;;;;;;;;;;;;;;-0.02;51.96;101827.09;6346312;28;20494;-66
2022/03/15 01:51:55;;;;;;;55.67;24.63;;;;;;;-0.11;51.99;101813.28;6327827;28;19920;-65
2022/03/15 01:54:56;;;;;;;48.90;23.50;;;;;;;-0.14;54.31;101821.81;6344482;28;20075;-66
2022/03/15 01:57:57;;;;;;;54.75;24.65;;;;;;;-0.19;55.36;101802.94;6345835;28;20046;-66
2022/03/15 02:00:58;;;;;;;59.92;26.40;;;;;;;-0.25;55.57;101785.78;6345665;28;20424;-66
2022/03/15 02:03:59;;;;;;;61.45;26.50;;;;;;;-0.26;54.73;101790.91;6345623;28;20054;-66
2022/03/15 02:07:02;;;;;;;68.55;25.98;;;;;;;-0.27;53.98;101801.97;6345543;28;20088;-66
2022/03/15 02:10:07;;;;;;;78.90;30.45;;;;;;;-0.25;54.31;101800.28;6345708;28;20066;-66
2022/03/15 02:13:11;;;;;;;79.03;30.35;;;;;;;-0.31;55.31;101793.41;6327749;28;20039;-66
2022/03/15 02:16:13;;;;;;;84.43;32.22;;;;;;;-0.50;55.23;101800.00;6345592;28;20046;-65
2022/03/15 02:19:14;;;;;;;70.18;30.10;;;;;;;-0.43;54.91;101801.81;6327203;28;20055;-66
2022/03/15 02:22:14;;;;;;;68.82;26.95;;;;;;;-0.38;54.34;101793.31;6345542;28;20147;-66
2022/03/15 02:25:16;;;;;;;68.25;26.85;;;;;;;-0.35;54.12;101806.16;6344104;28;20055;-66
2022/03/15 02:28:17;;;;;;;54.10;24.95;;;;;;;-0.31;53.84;101797.66;6345499;28;20403;-69
2022/03/15 02:31:19;;;;;;;62.75;26.35;;;;;;;-0.26;52.16;101783.19;6344240;28;20380;-69
2022/03/15 02:34:21;;;;;;;;;;;;;;;-0.21;51.81;101790.09;6344388;28;20036;-69
2022/03/15 02:37:24;;;;;;;59.05;24.48;;;;;;;-0.17;51.89;101788.41;6379215;27;19924;-69
2022/03/15 02:40:25;;;;;;;47.45;22.40;;;;;;;-0.10;51.12;101786.81;6350252;28;20040;-69
2022/03/15 02:43:25;;;;;;;46.20;20.30;;;;;;;-0.07;50.86;101799.66;6348740;28;20062;-69
2022/03/15 02:46:31;;;;;;;48.80;22.15;;;;;;;-0.02;51.35;101800.56;6348659;28;20491;-69
2022/03/15 02:49:32;;;;;;;43.35;21.15;;;;;;;0.02;50.81;101796.31;6331853;28;20050;-69
2022/03/15 02:52:32;;;;;;;45.25;21.17;;;;;;;0.08;50.77;101791.25;6349592;28;20131;-69
2022/03/15 02:55:34;;;;;;;46.22;21.73;;;;;;;0.11;50.66;101779.31;6348549;28;20050;-69
2022/03/15 02:58:35;;;;;;;50.22;22.70;;;;;;;0.14;50.81;101792.16;6349608;28;20423;-69
2022/03/15 03:01:36;;;;;;;42.70;20.80;;;;;;;0.13;50.12;101787.88;6349626;28;20036;-69
2022/03/15 03:04:36;;;;;;;42.80;21.45;;;;;;;0.13;50.41;101781.91;6349496;28;20050;-69
2022/03/15 03:07:38;;;;;;;46.08;22.50;;;;;;;0.14;50.77;101784.44;6349312;28;20472;-69
2022/03/15 03:10:38;;;;;;;50.17;21.45;;;;;;;0.13;50.74;101784.47;6349479;28;20039;-69
2022/03/15 03:13:41;;;;;;;47.58;20.95;;;;;;;0.06;50.99;101786.09;6347953;28;20436;-69
2022/03/15 03:16:42;;;;;;;49.83;21.73;;;;;;;0.11;51.01;101788.72;6348184;28;20050;-69
2022/03/15 03:19:44;;;;;;;46.80;21.50;;;;;;;0.12;51.38;101795.56;6347986;28;20066;-69
2022/03/15 03:22:54;;;;;;;43.63;21.58;;;;;;;0.13;50.15;101800.72;6348184;28;20054;-69
2022/03/15 03:25:56;;;;;;;51.05;21.88;;;;;;;0.17;50.74;101793.91;6330611;28;20468;-69
2022/03/15 03:28:57;;;;;;;43.92;21.75;;;;;;;0.18;51.35;101793.91;6349008;28;20058;-69
2022/03/15 03:31:58;;;;;;;43.40;22.57;;;;;;;0.17;51.25;101796.47;6347805;27;20120;-69
2022/03/15 03:35:04;;;;;;;45.63;21.80;;;;;;;0.16;51.14;101805.88;6347639;28;20538;-69
2022/03/15 03:38:05;;;;;;;49.92;22.75;;;;;;;0.11;51.14;101802.41;6348823;28;20051;-69
2022/03/15 03:41:06;;;;;;;42.42;22.42;;;;;;;0.09;51.23;101808.38;6348679;28;20086;-68
2022/03/15 03:44:07;;;;;;;44.47;21.08;;;;;;;0.06;51.40;101810.91;6347538;28;20040;-69
2022/03/15 03:47:08;;;;;;;47.15;21.70;;;;;;;0.05;51.20;101814.31;6347253;28;20092;-69
2022/03/15 03:50:11;;;;;;;46.17;22.75;;;;;;;0.04;52.08;101810.03;6346897;28;20403;-69
2022/03/15 03:53:12;;;;;;;56.53;24.65;;;;;;;0.02;51.27;101814.28;6348178;28;20603;-69
2022/03/15 03:56:14;;;;;;;42.33;21.45;;;;;;;-0.07;52.15;101815.03;6348145;28;20435;-69
2022/03/15 03:59:15;;;;;;;43.85;21.58;;;;;;;-0.08;51.90;101811.63;6347006;28;20047;-69
2022/03/15 04:02:15;;;;;;;48.08;23.58;;;;;;;-0.08;52.47;101801.34;6347048;28;20127;-69
2022/03/15 04:05:16;;;;;;;46.80;22.85;;;;;;;-0.12;52.22;101804.75;6347986;28;20097;-69
2022/03/15 04:08:17;;;;;;;49.35;23.33;;;;;;;-0.09;52.01;101812.44;6329875;28;20496;-69
2022/03/15 04:11:18;;;;;;;39.97;21.90;;;;;;;-0.09;51.95;101815.03;6346827;28;20071;-69
2022/03/15 04:14:19;;;;;;;48.45;23.38;;;;;;;-0.09;52.16;101815.03;6347760;28;20050;-69
2022/03/15 04:17:20;;;;;;;41.90;21.15;;;;;;;-0.07;51.88;101815.03;6346767;28;20112;-68
2022/03/15 04:20:20;;;;;;;45.35;23.02;;;;;;;-0.08;52.45;101809.06;6346529;28;20040;-69
2022/03/15 04:23:21;;;;;;;51.65;23.30;;;;;;;-0.10;52.28;101808.19;6347801;28;20042;-66
2022/03/15 04:26:24;;;;;;;46.65;22.98;;;;;;;-0.17;53.05;101806.38;6347527;28;20122;-66
2022/03/15 04:29:28;;;;;;;;;;;;;;;-0.17;52.53;101805.53;6346798;28;20071;-66
2022/03/15 04:32:28;;;;;;;41.88;21.02;;;;;;;-0.22;52.84;101811.47;6363678;27;19919;-66
2022/03/15 04:35:30;;;;;;;43.30;21.90;;;;;;;-0.15;53.01;101820.09;6346147;28;20080;-65
2022/03/15 04:38:31;;;;;;;79.35;29.13;;;;;;;-0.16;52.95;101812.38;6329429;28;20044;-66
2022/03/15 04:41:31;;;;;;;90.45;33.63;;;;;;;-0.17;52.93;101819.19;6347184;28;20042;-65
2022/03/15 04:44:32;;;;;;;76.30;31.15;;;;;;;-0.14;52.55;101818.41;6328825;28;20144;-66
2022/03/15 04:47:33;;;;;;;62.53;27.00;;;;;;;-0.13;52.89;101814.97;6345811;28;20480;-66
2022/03/15 04:50:34;;;;;;;60.08;27.40;;;;;;;-0.18;52.80;101829.47;6329231;28;20059;-66
2022/03/15 04:53:35;;;;;;;70.28;29.25;;;;;;;-0.24;53.63;101825.97;6345578;28;20078;-66
2022/03/15 04:56:38;;;;;;;64.63;28.55;;;;;;;-0.23;53.19;101822.59;6328903;28;20122;-66
2022/03/15 04:59:38;;;;;;;64.00;29.90;;;;;;;-0.19;52.95;101823.47;6345414;28;20071;-65
2022/03/15 05:02:44;;;;;;;75.82;29.45;;;;;;;-0.20;53.51;101819.19;6346391;28;20046;-66
2022/03/15 05:05:45;;;;;;;64.85;27.90;;;;;;;-0.24;54.23;101813.16;6329411;28;20052;-66
2022/03/15 05:08:46;;;;;;;59.58;27.08;;;;;;;-0.20;53.24;101811.50;6346942;28;20130;-66
2022/03/15 05:11:47;;;;;;;73.20;28.80;;;;;;;-0.12;53.70;101821.84;6345508;28;20487;-66
2022/03/15 05:14:47;;;;;;;70.50;29.70;;;;;;;-0.12;53.61;101822.69;6346585;28;20050;-66
2022/03/15 05:17:48;;;;;;;69.18;28.95;;;;;;;-0.15;53.78;101816.66;6346543;28;20051;-66
2022/03/15 05:20:49;;;;;;;60.00;26.83;;;;;;;-0.17;53.11;101821.78;6346449;28;20074;-66
2022/03/15 05:23:51;;;;;;;65.82;27.75;;;;;;;-0.12;53.28;101820.13;6345245;28;20043;-66
2022/03/15 05:26:52;;;;;;;64.78;28.15;;;;;;;-0.03;53.64;101809.09;6344993;28;20035;-65
2022/03/15 05:29:53;;;;;;;59.13;25.90;;;;;;;-0.05;53.63;101811.66;6346318;28;20036;-65
2022/03/15 05:32:54;;;;;;;51.67;25.00;;;;;;;-0.06;53.70;101809.94;6345119;28;20470;-66
2022/03/15 05:35:56;;;;;;;57.63;25.02;;;;;;;-0.02;53.58;101810.84;6344978;28;20044;-66
2022/03/15 05:38:56;;;;;;;54.83;27.27;;;;;;;0.00;53.83;101814.28;6346204;28;20047;-66
2022/03/15 05:41:57;;;;;;;65.40;26.70;;;;;;;0.08;53.48;101819.47;6327972;28;20035;-65
2022/03/15 05:44:58;;;;;;;67.18;27.95;;;;;;;0.09;53.29;101813.50;6345929;28;20040;-66
2022/03/15 05:47:59;;;;;;;79.15;31.40;;;;;;;0.09;53.49;101819.50;6344647;28;20399;-66
2022/03/15 05:51:00;;;;;;;91.60;37.15;;;;;;;0.21;52.94;101834.19;6344811;28;20039;-66
2022/03/15 05:54:01;;;;;;;127.32;42.92;;;;;;;0.25;52.68;101840.19;6344354;28;20079;-66
2022/03/15 05:57:03;;;;;;;125.28;47.47;;;;;;;0.26;53.54;101829.06;6345760;28;20066;-66
2022/03/15 06:00:08;;;;;;;185.48;58.47;;;;;;;0.35;53.22;101831.72;6345787;28;20070;-65
2022/03/15 06:03:13;;;;;;;127.43;49.00;;;;;;;0.36;53.14;101836.03;6344788;28;20047;-66
2022/03/15 06:06:14;;;;;;;104.80;41.33;;;;;;;0.45;53.58;101842.94;6328095;28;20031;-66
2022/03/15 06:09:14;;;;;;;81.55;33.92;;;;;;;0.48;53.31;101832.72;6344480;28;20488;-66
2022/03/15 06:12:16;;;;;;;66.97;30.35;;;;;;;0.60;52.64;101833.69;6347762;28;20044;-66
2022/03/15 06:15:18;;;;;;;65.60;28.25;;;;;;;0.64;52.69;101833.69;6332882;28;20603;-65
2022/03/15 06:18:19;;;;;;;71.43;33.25;;;;;;;0.67;52.71;101844.88;6332776;28;20082;-67
2022/03/15 06:21:19;;;;;;;47.50;25.00;;;;;;;0.68;52.43;101850.84;6350637;28;20035;-67
2022/03/15 06:24:20;;;;;;;48.17;23.88;;;;;;;0.76;52.20;101839.81;6350619;28;20040;-67
2022/03/15 06:27:21;;;;;;;50.10;23.50;;;;;;;0.76;51.96;101842.38;6349131;28;20479;-67
2022/03/15 06:30:22;;;;;;;46.25;22.45;;;;;;;0.87;51.79;101850.19;6350799;28;20050;-67
2022/03/15 06:33:24;;;;;;;48.80;20.65;;;;;;;0.97;51.78;101854.53;6349206;28;20043;-67
2022/03/15 06:36:25;;;;;;;44.53;21.70;;;;;;;1.10;51.46;101850.34;6350269;28;20048;-67
2022/03/15 06:39:26;;;;;;;47.20;21.65;;;;;;;1.26;51.52;101851.31;6349115;28;20107;-67
2022/03/15 06:42:27;;;;;;;41.83;18.83;;;;;;;1.44;50.71;101859.97;6350075;28;20036;-68
2022/03/15 06:45:29;;;;;;;41.58;18.85;;;;;;;1.64;49.95;101865.22;6332235;28;20048;-67
2022/03/15 06:48:30;;;;;;;37.03;18.55;;;;;;;1.86;50.04;101869.63;6349796;28;20089;-67
2022/03/15 06:51:31;;;;;;;35.75;19.08;;;;;;;2.04;49.65;101866.25;6350062;28;20151;-67
2022/03/15 06:54:31;;;;;;;36.35;17.05;;;;;;;2.22;48.71;101863.72;6324789;28;20400;-67
2022/03/15 06:57:34;;;;;;;36.65;17.60;;;;;;;2.45;48.40;101862.91;6323242;28;20040;-67
2022/03/15 07:00:34;;;;;;;36.40;17.83;;;;;;;2.71;47.54;101855.19;6323245;28;20051;-67
2022/03/15 07:03:36;;;;;;;37.15;16.70;;;;;;;2.95;46.72;101849.19;6306631;28;20060;-68
2022/03/15 07:06:36;;;;;;;38.03;16.23;;;;;;;3.18;46.32;101854.28;6306238;28;20040;-68
2022/03/15 07:09:37;;;;;;;45.75;17.88;;;;;;;3.40;47.19;101849.09;6323022;28;20043;-67
2022/03/15 07:12:38;;;;;;;32.97;17.48;;;;;;;3.58;45.82;101854.22;6306549;28;20119;-68
2022/03/15 07:15:39;;;;;;;34.20;16.38;;;;;;;3.79;45.47;101849.84;6324058;28;20115;-68
2022/03/15 07:18:40;;;;;;;31.40;15.63;;;;;;;3.89;44.39;101855.78;6306094;28;20054;-67
2022/03/15 07:21:41;;;;;;;34.45;16.17;;;;;;;4.14;44.67;101857.41;6323983;28;20480;-67
2022/03/15 07:24:42;;;;;;;31.05;15.60;;;;;;;4.29;44.41;101851.28;6323037;28;20119;-68
2022/03/15 07:27:43;;;;;;;30.38;16.23;;;;;;;4.47;44.37;101844.25;6305450;28;20063;-68
2022/03/15 07:30:44;;;;;;;32.55;15.95;;;;;;;4.73;44.10;101857.84;6322644;28;20503;-68
2022/03/15 07:33:45;;;;;;;34.17;16.73;;;;;;;4.87;43.10;101855.16;6305700;28;20077;-68
2022/03/15 07:36:45;;;;;;;29.08;16.92;;;;;;;4.99;42.94;101847.28;6305546;28;20040;-67
2022/03/15 07:39:46;;;;;;;37.75;17.85;;;;;;;5.27;42.41;101843.56;6323629;28;20055;-67
2022/03/15 07:42:49;;;;;;;35.05;17.48;;;;;;;5.55;42.14;101851.91;6322281;28;20040;-65
2022/03/15 07:45:50;;;;;;;30.23;15.48;;;;;;;5.48;40.94;101845.94;6322228;28;20073;-65
2022/03/15 07:48:51;;;;;;;30.85;15.88;;;;;;;5.71;41.36;101847.41;6321952;28;20040;-65
2022/03/15 07:51:52;;;;;;;30.75;15.35;;;;;;;5.85;41.18;101845.50;6308075;28;20063;-66
2022/03/15 07:54:52;;;;;;;31.40;14.88;;;;;;;6.08;40.99;101847.81;6348484;28;20043;-66
2022/03/15 07:57:53;;;;;;;30.30;15.25;;;;;;;6.36;40.01;101852.59;6347192;28;20044;-67
2022/03/15 08:00:56;;;;;;;25.02;13.32;;;;;;;6.54;38.85;101849.72;6347079;28;20118;-67
2022/03/15 08:03:57;;;;;;;28.98;13.38;;;;;;;6.88;38.97;101854.38;6348299;28;20051;-66
2022/03/15 08:06:59;;;;;;;30.02;14.27;;;;;;;6.95;38.89;101852.53;6330006;28;20040;-66
2022/03/15 08:10:00;;;;;;;29.90;14.32;;;;;;;7.14;38.71;101846.13;6329961;28;20720;-66
2022/03/15 08:13:00;;;;;;;27.85;14.02;;;;;;;7.19;38.61;101846.06;6346899;28;20040;-66
2022/03/15 08:16:02;;;;;;;23.27;13.40;;;;;;;7.31;37.39;101840.66;6348197;28;20044;-66
2022/03/15 08:19:04;;;;;;;26.70;14.02;;;;;;;7.56;38.47;101851.41;6347854;28;20047;-66
2022/03/15 08:22:06;;;;;;;30.80;13.60;;;;;;;7.84;38.65;101846.50;6346592;28;20116;-67
2022/03/15 08:25:07;;;;;;;;;;;;;;;8.00;37.76;101848.78;6348329;28;20035;-66
2022/03/15 08:28:08;;;;;;;23.80;12.57;;;;;;;8.18;36.82;101839.72;6347440;28;20370;-66
2022/03/15 08:31:09;;;;;;;28.48;13.18;;;;;;;8.30;36.43;101836.84;6346251;28;20055;-67
2022/03/15 08:34:10;;;;;;;23.20;12.30;;;;;;;8.50;35.79;101835.53;6346215;28;20081;-66
2022/03/15 08:37:12;;;;;;;21.60;11.73;;;;;;;8.53;35.51;101833.72;6329224;28;20067;-67
2022/03/15 08:40:13;;;;;;;;;;;;;;;8.82;36.09;101833.00;6346632;28;20407;-67
2022/03/15 08:43:15;;;;;;;21.42;11.65;;;;;;;9.05;34.93;101823.72;6347315;28;19942;-67
2022/03/15 08:46:16;;;;;;;20.23;11.68;;;;;;;9.26;34.75;101815.34;6347314;28;20483;-67
2022/03/15 08:49:18;;;;;;;23.95;11.98;;;;;;;9.57;34.17;101817.06;6345672;28;20040;-68
2022/03/15 08:52:20;;;;;;;19.08;10.77;;;;;;;9.77;33.75;101810.44;6345824;28;20047;-67
2022/03/15 08:55:22;;;;;;;22.35;11.30;;;;;;;9.94;33.06;101812.53;6345707;28;20503;-68
2022/03/15 08:58:23;;;;;;;19.60;10.90;;;;;;;9.85;32.97;101806.69;6347005;28;20043;-67
2022/03/15 09:01:24;;;;;;;22.90;13.45;;;;;;;10.08;32.56;101807.75;6345601;28;20066;-67
2022/03/15 09:04:25;;;;;;;23.65;11.13;;;;;;;10.24;32.37;101792.50;6328757;28;20050;-68
2022/03/15 09:07:27;;;;;;;18.80;10.20;;;;;;;10.54;32.14;101798.47;6328583;28;20052;-71
2022/03/15 09:10:28;;;;;;;17.55;9.30;;;;;;;10.68;31.88;101785.81;6312288;28;20054;-67
2022/03/15 09:13:29;;;;;;;24.65;13.15;;;;;;;10.65;31.40;101785.09;6328481;28;20044;-68
2022/03/15 09:16:30;;;;;;;17.83;9.82;;;;;;;10.70;31.28;101767.50;6346453;28;20395;-71
2022/03/15 09:19:31;;;;;;;19.88;10.23;;;;;;;10.89;31.19;101767.72;6345131;28;20074;-70
2022/03/15 09:22:32;;;;;;;17.33;9.17;;;;;;;11.13;30.45;101765.16;6346402;28;20552;-71
2022/03/15 09:25:35;;;;;;;18.30;9.10;;;;;;;11.20;30.38;101766.63;6346430;28;20479;-67
2022/03/15 09:28:37;;;;;;;17.83;9.18;;;;;;;11.19;29.88;101757.09;6346050;28;20130;-67
2022/03/15 09:31:39;;;;;;;16.65;8.50;;;;;;;11.46;30.16;101763.91;6328420;28;20063;-67
2022/03/15 09:34:40;;;;;;;15.80;9.07;;;;;;;11.60;29.80;101770.38;6346196;28;20104;-71
2022/03/15 09:37:45;;;;;;;16.15;9.48;;;;;;;11.71;29.09;101755.13;6327957;28;20633;-71
2022/03/15 09:40:52;;;;;;;15.65;8.93;;;;;;;11.91;29.35;101750.91;6344993;28;20040;-71
2022/03/15 09:43:55;;;;;;;16.55;8.32;;;;;;;12.02;28.89;101753.94;6344974;28;20062;-70
2022/03/15 09:47:02;;;;;;;18.67;8.38;;;;;;;12.38;28.37;101743.75;6345741;28;20063;-71
2022/03/15 09:50:06;;;;;;;18.73;9.32;;;;;;;12.44;28.56;101734.81;6344663;28;20138;-71
2022/03/15 09:53:09;;;;;;;15.07;8.30;;;;;;;12.61;27.54;101747.16;6344593;28;20062;-67
2022/03/15 09:56:13;;;;;;;14.23;8.60;;;;;;;12.69;28.25;101742.47;6344605;28;20495;-71
2022/03/15 09:59:17;;;;;;;16.02;9.43;;;;;;;12.88;27.60;101739.88;6345838;28;20044;-68
2022/03/15 10:02:18;;;;;;;17.90;9.50;;;;;;;13.15;27.60;101731.72;6345771;28;20514;-68
2022/03/15 10:05:19;;;;;;;14.97;8.97;;;;;;;13.37;28.48;101735.09;6344932;28;20062;-67
2022/03/15 10:08:21;;;;;;;14.90;8.67;;;;;;;13.35;26.74;101734.31;6344317;28;20044;-71
2022/03/15 10:11:23;;;;;;;15.52;8.70;;;;;;;13.32;26.72;101731.81;6345733;28;20051;-71
2022/03/15 10:14:24;;;;;;;12.93;7.50;;;;;;;13.16;26.83;101731.66;6344429;28;20052;-71
2022/03/15 10:17:25;;;;;;;11.93;7.75;;;;;;;13.36;26.88;101720.28;6327592;28;20040;-68
2022/03/15 10:20:29;;;;;;;15.40;8.50;;;;;;;13.70;26.75;101706.44;6327379;28;20094;-67
2022/03/15 10:23:36;;;;;;;14.50;8.25;;;;;;;13.69;26.01;101720.50;6311629;28;20056;-68
2022/03/15 10:26:39;;;;;;;12.70;7.70;;;;;;;13.85;25.04;101712.72;6345550;28;20404;-67
2022/03/15 10:29:42;;;;;;;14.13;7.25;;;;;;;13.97;25.02;101694.69;6345341;28;20322;-67
2022/03/15 10:32:43;;;;;;;17.70;7.38;;;;;;;13.99;25.88;101706.78;6344397;28;20047;-67
2022/03/15 10:35:48;;;;;;;11.70;7.03;;;;;;;14.21;24.95;101688.22;6344238;28;20068;-71
2022/03/15 10:38:51;;;;;;;15.13;8.23;;;;;;;13.89;25.52;101692.44;6344227;28;20039;-71
2022/03/15 10:42:05;;;;;;;17.80;7.72;;;;;;;14.29;24.80;101683.44;6345333;28;20043;-71
2022/03/15 10:45:19;;;;;;;13.38;7.30;;;;;;;14.59;24.98;101677.53;6345563;28;20040;-71
2022/03/15 10:48:23;;;;;;;13.68;7.40;;;;;;;15.01;24.35;101676.22;6345096;28;20035;-71
2022/03/15 10:51:24;;;;;;;12.32;7.40;;;;;;;15.00;22.74;101663.16;6345287;28;20483;-71
2022/03/15 10:54:26;;;;;;;11.77;7.10;;;;;;;14.82;22.69;101671.06;6343765;28;20051;-67
2022/03/15 10:57:27;;;;;;;11.57;7.05;;;;;;;14.80;23.03;101657.16;6345229;28;20051;-71
2022/03/15 11:00:37;;;;;;;11.45;7.07;;;;;;;14.47;23.38;101667.66;6330687;28;20146;-71
2022/03/15 11:03:39;;;;;;;10.20;6.25;;;;;;;15.04;23.54;101654.16;6348664;28;20043;-67
2022/03/15 11:06:45;;;;;;;12.93;6.60;;;;;;;15.17;22.45;101652.56;6349608;28;20047;-67
2022/03/15 11:09:46;;;;;;;20.15;6.68;;;;;;;15.40;22.65;101637.28;6349915;28;20077;-68
2022/03/15 11:13:02;;;;;;;11.43;7.03;;;;;;;15.34;22.88;101641.13;6348356;28;20046;-71
2022/03/15 11:16:06;;;;;;;13.07;7.80;;;;;;;15.50;23.30;101643.72;6331782;28;20047;-68
2022/03/15 11:19:12;;;;;;;13.98;8.07;;;;;;;15.48;22.71;101632.44;6349214;28;20043;-68
2022/03/15 11:22:15;;;;;;;11.68;7.30;;;;;;;15.48;22.84;101620.16;6331990;28;20380;-68
2022/03/15 11:25:18;;;;;;;11.07;7.10;;;;;;;15.64;24.09;101619.25;6349221;28;20639;-71
2022/03/15 11:28:31;;;;;;;12.60;6.65;;;;;;;15.65;22.09;101615.72;6347893;28;20043;-71
2022/03/15 11:31:32;;;;;;;14.10;7.25;;;;;;;15.55;22.05;101607.50;6347789;28;20039;-67
2022/03/15 11:34:36;;;;;;;11.32;7.20;;;;;;;15.62;21.68;101605.34;6347852;28;20036;-71
2022/03/15 11:37:38;;;;;;;11.55;7.10;;;;;;;15.88;22.65;101606.50;6347623;28;20156;-71
2022/03/15 11:40:40;;;;;;;12.55;7.50;;;;;;;15.88;23.33;101593.34;6348822;28;20487;-68
2022/03/15 11:44:07;;;;;;;11.90;7.15;;;;;;;16.09;22.32;101589.44;6348774;28;20376;-71
2022/03/15 11:47:15;;;;;;;17.05;7.57;;;;;;;16.33;21.32;101575.72;6343403;28;20066;-71
2022/03/15 11:50:43;;;;;;;10.52;6.85;;;;;;;15.95;21.54;101565.72;6347251;28;20055;-71
2022/03/15 11:54:04;;;;;;;12.52;7.45;;;;;;;15.96;21.52;101566.56;6348104;28;20101;-71
2022/03/15 11:57:40;;;;;;;10.90;6.90;;;;;;;16.04;21.75;101561.66;6347212;28;20479;-71
2022/03/15 12:00:46;;;;;;;13.20;8.00;;;;;;;15.93;21.58;101543.06;6344218;28;20071;-68
2022/03/15 12:03:51;;;;;;;12.70;6.70;;;;;;;15.95;22.03;101547.28;6348400;28;20092;-71
2022/03/15 12:06:56;;;;;;;11.63;6.60;;;;;;;15.67;21.95;101540.16;6348175;28;20036;-69
2022/03/15 12:09:57;;;;;;;13.07;8.10;;;;;;;15.66;21.39;101527.94;6346469;28;20043;-68
2022/03/15 12:13:03;;;;;;;13.02;6.93;;;;;;;15.63;21.35;101531.59;6348068;28;20039;-68
2022/03/15 12:16:13;;;;;;;14.50;6.88;;;;;;;15.73;22.06;101528.44;6348053;28;20058;-71
2022/03/15 12:19:27;;;;;;;10.82;6.90;;;;;;;16.14;21.45;101514.59;6347835;28;20092;-71
2022/03/15 12:22:36;;;;;;;13.82;7.90;;;;;;;16.13;23.51;101511.09;6348251;28;20039;-68
2022/03/15 12:25:37;;;;;;;14.63;7.97;;;;;;;16.33;21.21;101501.97;6347754;28;20055;-67
2022/03/15 12:28:38;;;;;;;13.90;7.28;;;;;;;16.43;21.53;101489.06;6329654;28;20051;-71
2022/03/15 12:31:46;;;;;;;13.48;7.57;;;;;;;16.34;21.41;101489.66;6346343;28;20047;-71
2022/03/15 12:34:49;;;;;;;11.80;7.25;;;;;;;16.60;21.09;101490.66;6346364;28;20047;-71
2022/03/15 12:37:51;;;;;;;11.98;8.18;;;;;;;16.51;22.07;101481.53;6346341;28;20051;-71
2022/03/15 12:40:52;;;;;;;11.07;7.40;;;;;;;16.67;21.24;101470.84;6346055;28;20047;-68
2022/03/15 12:43:53;;;;;;;22.88;8.88;;;;;;;16.77;22.03;101464.06;6346098;28;20397;-67
2022/03/15 12:46:55;;;;;;;12.23;7.43;;;;;;;16.79;20.84;101453.41;6346052;28;20067;-67
2022/03/15 12:50:30;;;;;;;12.15;7.13;;;;;;;17.06;21.42;101450.78;6345850;28;20040;-67
2022/03/15 12:53:36;;;;;;;13.57;8.07;;;;;;;16.91;20.85;101445.56;6338537;28;20056;-67
2022/03/15 12:56:46;;;;;;;12.00;7.65;;;;;;;16.52;21.06;101444.56;6346858;28;20078;-67
2022/03/15 12:59:50;;;;;;;15.95;7.95;;;;;;;16.43;21.75;101442.50;6345644;28;20479;-68
2022/03/15 13:02:54;;;;;;;17.40;7.88;;;;;;;16.44;21.22;101443.34;6345798;28;20043;-72
2022/03/15 13:05:57;;;;;;;12.80;7.40;;;;;;;16.44;21.90;101436.28;6347281;28;20050;-72
2022/03/15 13:08:59;;;;;;;12.50;7.75;;;;;;;16.49;20.92;101423.69;6345606;28;20090;-72
2022/03/15 13:12:01;;;;;;;18.90;8.15;;;;;;;16.48;21.85;101421.13;6345525;28;20051;-71
2022/03/15 13:15:02;;;;;;;29.77;14.00;;;;;;;16.66;22.20;101417.31;6347001;28;20042;-72
2022/03/15 13:18:05;;;;;;;14.00;8.57;;;;;;;16.50;22.30;101408.72;6356176;27;20054;-71
2022/03/15 13:21:08;;;;;;;20.60;11.27;;;;;;;16.29;21.90;101413.56;6369966;27;20055;-72
2022/03/15 13:24:10;;;;;;;11.93;7.90;;;;;;;16.23;21.76;101406.91;6370550;27;20154;-72
2022/03/15 13:27:11;;;;;;;13.25;8.20;;;;;;;16.38;21.74;101404.22;6371039;27;20058;-71
2022/03/15 13:30:15;;;;;;;14.77;7.07;;;;;;;16.29;21.10;101406.50;6371097;27;20059;-69
2022/03/15 13:33:56;;;;;;;20.45;8.93;;;;;;;16.47;21.82;101403.63;6370213;27;20116;-68
2022/03/15 13:37:06;;;;;;;11.98;7.53;;;;;;;16.38;21.69;101402.44;6330069;27;20059;-71
2022/03/15 13:40:08;;;;;;;13.82;7.90;;;;;;;16.42;21.50;101392.56;6370405;27;20460;-72
2022/03/15 13:43:15;;;;;;;19.23;7.78;;;;;;;16.44;21.44;101398.56;6353983;27;20096;-72
2022/03/15 13:46:19;;;;;;;11.05;7.35;;;;;;;15.99;21.93;101387.38;6364220;27;20047;-68
2022/03/15 13:49:24;;;;;;;12.60;7.40;;;;;;;16.10;22.08;101390.16;6348676;27;20104;-67
2022/03/15 13:52:25;;;;;;;12.18;7.35;;;;;;;16.10;22.36;101388.41;6346648;28;20054;-67
2022/03/15 13:55:28;;;;;;;13.45;7.78;;;;;;;15.83;22.49;101388.31;6346452;28;20059;-71
2022/03/15 13:58:29;;;;;;;;;;;;;;;15.85;22.63;101390.84;6328678;28;20047;-66